Time;durP1;ratioP1;P1;durP2;ratioP2;P2;SDS_P1;SDS_P2;PMS_P1;PMS_P2;Temp;Humidity;BMP_temperature;BMP_pressure;BME280_temperature;BME280_humidity;BME280_pressure;Samples;Min_cycle;Max_cycle;Signal;HPM_P1;HPM_P2
2022/07/13 00:00:00;;;;;;;22.77;3.40;;;18.30;22.70;;;;;;5045066;28;20472;-67
2022/07/13 00:02:28;;;;;;;22.60;2.63;;;18.20;22.90;;;;;;5038727;28;20498;-68
2022/07/13 00:04:55;;;;;;;23.43;3.23;;;18.20;23.10;;;;;;5060173;28;20862;-67
2022/07/13 00:07:21;;;;;;;23.20;2.67;;;18.20;23.40;;;;;;5062623;28;20524;-67
2022/07/13 00:09:48;;;;;;;23.20;2.70;;;18.10;23.80;;;;;;5046847;28;20469;-67
2022/07/13 00:12:15;;;;;;;23.70;2.87;;;18.10;23.70;;;;;;5046612;28;20462;-68
2022/07/13 00:14:42;;;;;;;25.30;3.17;;;18.10;23.60;;;;;;5057500;28;20488;-67
2022/07/13 00:17:09;;;;;;;23.00;2.50;;;18.00;23.50;;;;;;5058595;28;20989;-68
2022/07/13 00:19:37;;;;;;;23.10;3.03;;;18.00;23.30;;;;;;5055333;28;20465;-67
2022/07/13 00:22:04;;;;;;;23.93;2.80;;;18.00;23.10;;;;;;5051395;28;20468;-67
2022/07/13 00:24:31;;;;;;;24.07;2.47;;;18.00;23.10;;;;;;5056978;28;20476;-67
2022/07/13 00:26:57;;;;;;;24.20;2.70;;;18.00;22.90;;;;;;5071346;28;20526;-67
2022/07/13 00:29:24;;;;;;;23.83;2.77;;;17.90;23.10;;;;;;5058478;28;20465;-67
2022/07/13 00:31:51;;;;;;;23.63;2.80;;;18.00;23.00;;;;;;5049571;28;20474;-67
2022/07/13 00:34:18;;;;;;;26.60;3.70;;;18.00;22.90;;;;;;5055634;28;20786;-67
2022/07/13 00:36:46;;;;;;;25.07;3.10;;;17.90;23.20;;;;;;5051246;28;20472;-67
2022/07/13 00:39:12;;;;;;;24.80;3.50;;;17.90;22.90;;;;;;5062844;28;20473;-67
2022/07/13 00:41:45;;;;;;;25.50;3.10;;;17.90;23.10;;;;;;5051157;28;20469;-67
2022/07/13 00:44:12;;;;;;;24.40;3.00;;;17.80;23.30;;;;;;5053007;28;20862;-67
2022/07/13 00:46:41;;;;;;;23.80;2.90;;;17.80;23.20;;;;;;5070674;28;20465;-67
2022/07/13 00:49:09;;;;;;;25.60;3.50;;;17.70;23.40;;;;;;5058377;28;20462;-67
2022/07/13 00:51:37;;;;;;;23.40;3.17;;;17.70;23.60;;;;;;5049129;28;20460;-67
2022/07/13 00:54:07;;;;;;;25.60;3.77;;;17.60;23.90;;;;;;5051210;28;20477;-68
2022/07/13 00:56:34;;;;;;;23.93;3.50;;;17.60;24.10;;;;;;5048859;28;20466;-67
2022/07/13 00:59:00;;;;;;;24.37;3.47;;;17.60;24.20;;;;;;5051207;28;20466;-68
2022/07/13 01:01:28;;;;;;;25.60;3.60;;;17.50;24.30;;;;;;5056070;28;20992;-67
2022/07/13 01:03:55;;;;;;;25.13;3.07;;;17.50;24.20;;;;;;5048899;28;20461;-67
2022/07/13 01:06:22;;;;;;;24.57;3.30;;;17.40;24.80;;;;;;5050012;28;20465;-67
2022/07/13 01:08:48;;;;;;;25.10;3.30;;;17.30;25.20;;;;;;5056654;28;20476;-68
2022/07/13 01:11:17;;;;;;;25.53;3.50;;;17.20;24.70;;;;;;5051557;28;20457;-68
2022/07/13 01:13:45;;;;;;;24.93;3.20;;;17.10;25.30;;;;;;5051153;28;20488;-67
2022/07/13 01:16:12;;;;;;;26.03;3.50;;;17.00;25.20;;;;;;5050698;28;20998;-67
2022/07/13 01:18:39;;;;;;;25.17;4.20;;;17.00;25.30;;;;;;5051016;28;20462;-67
2022/07/13 01:21:07;;;;;;;27.47;4.03;;;16.90;25.60;;;;;;5049988;28;20458;-68
2022/07/13 01:23:35;;;;;;;24.60;3.67;;;16.80;25.70;;;;;;5047418;28;20864;-67
2022/07/13 01:26:02;;;;;;;26.30;3.80;;;16.80;26.20;;;;;;5059007;28;20957;-68
2022/07/13 01:28:29;;;;;;;22.60;3.57;;;16.70;26.50;;;;;;5069979;28;20457;-68
2022/07/13 01:30:56;;;;;;;25.23;3.57;;;16.60;26.70;;;;;;5055331;28;20648;-68
2022/07/13 01:33:23;;;;;;;24.83;3.47;;;16.60;26.90;;;;;;5058755;28;20453;-68
2022/07/13 01:35:50;;;;;;;22.73;3.43;;;16.60;27.30;;;;;;5048940;28;20609;-68
2022/07/13 01:38:17;;;;;;;23.10;3.50;;;16.50;27.60;;;;;;5049944;28;20466;-68
2022/07/13 01:40:46;;;;;;;25.30;3.83;;;16.50;27.70;;;;;;5048937;28;20462;-68
2022/07/13 01:43:12;;;;;;;23.17;3.70;;;16.60;27.70;;;;;;5049919;28;20458;-68
2022/07/13 01:45:39;;;;;;;23.43;3.30;;;16.50;27.90;;;;;;5048922;28;20478;-67
2022/07/13 01:48:07;;;;;;;23.40;3.50;;;16.50;28.30;;;;;;5050599;28;20462;-68
2022/07/13 01:50:34;;;;;;;23.53;3.40;;;16.50;28.40;;;;;;5061692;28;20453;-69
2022/07/13 01:53:00;;;;;;;23.83;3.30;;;16.40;28.50;;;;;;5056873;28;20467;-67
2022/07/13 01:55:27;;;;;;;24.57;3.50;;;16.40;28.60;;;;;;5059913;28;20481;-67
2022/07/13 01:57:59;;;;;;;24.00;3.30;;;16.40;28.70;;;;;;5057275;28;20468;-67
2022/07/13 02:00:27;;;;;;;26.43;4.27;;;16.40;28.90;;;;;;5049206;28;20462;-68
2022/07/13 02:02:54;;;;;;;24.00;3.30;;;16.40;28.70;;;;;;5067002;28;20453;-68
2022/07/13 02:05:21;;;;;;;24.23;3.60;;;16.40;28.80;;;;;;5069011;28;20484;-67
2022/07/13 02:07:48;;;;;;;24.73;3.20;;;16.40;28.80;;;;;;5057248;28;20935;-68
2022/07/13 02:10:15;;;;;;;26.33;3.47;;;16.30;28.80;;;;;;5058156;28;20560;-67
2022/07/13 02:12:42;;;;;;;5.60;2.10;;;16.30;28.70;;;;;;5069554;28;20464;-68
2022/07/13 02:15:11;;;;;;;5.73;2.70;;;16.30;28.80;;;;;;5054996;28;20490;-67
2022/07/13 02:17:38;;;;;;;5.30;2.63;;;16.30;28.70;;;;;;5069395;28;20465;-68
2022/07/13 02:20:06;;;;;;;4.53;2.03;;;16.30;28.70;;;;;;5069342;28;20800;-68
2022/07/13 02:22:43;;;;;;;7.83;2.80;;;16.20;28.90;;;;;;5069300;28;20465;-68
2022/07/13 02:25:11;;;;;;;5.00;2.30;;;16.20;29.20;;;;;;5069593;28;20491;-67
2022/07/13 02:27:37;;;;;;;7.13;2.30;;;16.20;28.90;;;;;;5066733;28;20457;-67
2022/07/13 02:30:05;;;;;;;4.80;2.10;;;16.10;29.00;;;;;;5053099;28;20469;-67
2022/07/13 02:32:34;;;;;;;5.63;2.40;;;16.10;29.00;;;;;;5048093;28;21183;-67
2022/07/13 02:35:01;;;;;;;5.07;2.07;;;16.10;29.10;;;;;;5063806;28;20488;-67
2022/07/13 02:37:28;;;;;;;7.70;2.00;;;16.00;29.20;;;;;;5069137;28;20488;-68
2022/07/13 02:39:56;;;;;;;6.33;2.57;;;15.90;29.40;;;;;;5064267;28;20468;-68
2022/07/13 02:42:23;;;;;;;6.20;2.57;;;16.00;29.70;;;;;;5049376;28;20462;-67
2022/07/13 02:44:50;;;;;;;5.90;2.40;;;15.90;29.70;;;;;;5046295;28;20478;-68
2022/07/13 02:47:17;;;;;;;5.80;2.20;;;15.90;29.60;;;;;;5061141;28;20467;-68
2022/07/13 02:49:45;;;;;;;4.93;2.33;;;15.90;29.80;;;;;;5068012;28;20465;-68
2022/07/13 02:52:13;;;;;;;6.43;2.67;;;15.80;29.90;;;;;;5051951;28;20473;-67
2022/07/13 02:54:39;;;;;;;5.50;2.40;;;15.80;29.90;;;;;;5047398;28;20482;-67
2022/07/13 02:57:06;;;;;;;5.00;2.40;;;15.70;29.70;;;;;;5044725;28;21025;-67
2022/07/13 02:59:33;;;;;;;6.50;2.30;;;15.70;29.80;;;;;;5039961;28;20962;-68
2022/07/13 03:02:01;;;;;;;9.67;2.70;;;15.70;29.90;;;;;;5055957;28;21091;-68
2022/07/13 03:04:27;;;;;;;6.40;2.30;;;15.70;30.00;;;;;;5046791;28;20859;-67
2022/07/13 03:06:56;;;;;;;7.37;2.87;;;15.70;29.90;;;;;;5048509;28;20458;-68
2022/07/13 03:09:23;;;;;;;4.87;2.40;;;15.70;30.40;;;;;;5066930;28;20954;-68
2022/07/13 03:11:50;;;;;;;5.47;2.47;;;15.70;30.30;;;;;;5049639;28;20458;-68
2022/07/13 03:14:17;;;;;;;5.03;1.90;;;15.70;30.60;;;;;;5043082;28;20490;-68
2022/07/13 03:16:44;;;;;;;5.17;2.03;;;15.70;30.80;;;;;;5047900;28;20544;-68
2022/07/13 03:19:11;;;;;;;7.03;2.40;;;15.70;30.50;;;;;;5048667;28;20828;-68
2022/07/13 03:21:38;;;;;;;6.90;2.27;;;15.70;30.60;;;;;;5046367;28;20462;-68
2022/07/13 03:24:06;;;;;;;5.30;2.20;;;15.70;30.60;;;;;;5049442;28;20458;-68
2022/07/13 03:26:33;;;;;;;5.23;2.80;;;15.70;30.50;;;;;;5046326;28;20458;-68
2022/07/13 03:29:00;;;;;;;11.87;3.60;;;15.60;30.60;;;;;;5035472;28;20629;-68
2022/07/13 03:31:27;;;;;;;5.57;2.20;;;15.60;30.70;;;;;;5060657;28;21060;-68
2022/07/13 03:33:55;;;;;;;5.40;2.50;;;15.60;30.80;;;;;;5058427;28;20466;-68
2022/07/13 03:36:21;;;;;;;6.80;2.73;;;15.60;30.90;;;;;;5049988;28;20488;-69
2022/07/13 03:38:48;;;;;;;6.00;2.47;;;15.60;30.90;;;;;;5061688;28;20470;-69
2022/07/13 03:41:16;;;;;;;8.10;2.40;;;15.60;30.90;;;;;;5058818;28;20471;-68
2022/07/13 03:43:43;;;;;;;8.73;2.57;;;15.60;30.80;;;;;;5067038;28;20482;-68
2022/07/13 03:46:10;;;;;;;8.60;2.70;;;15.60;30.80;;;;;;5059968;28;20570;-68
2022/07/13 03:48:36;;;;;;;5.17;2.60;;;15.60;30.80;;;;;;5067979;28;20453;-68
2022/07/13 03:51:03;;;;;;;5.27;2.00;;;15.60;30.80;;;;;;5043039;28;20451;-68
2022/07/13 03:53:30;;;;;;;7.13;2.87;;;15.60;30.90;;;;;;5050469;28;20465;-69
2022/07/13 03:55:57;;;;;;;4.93;2.40;;;15.50;31.20;;;;;;5055744;28;20485;-61
2022/07/13 03:58:25;;;;;;;5.63;2.90;;;15.50;31.30;;;;;;5055984;28;20461;-62
2022/07/13 04:00:52;;;;;;;6.43;2.97;;;15.50;31.40;;;;;;5048085;28;20478;-62
2022/07/13 04:03:19;;;;;;;8.57;2.97;;;15.50;31.40;;;;;;5053703;28;20553;-61
2022/07/13 04:05:46;;;;;;;7.70;3.23;;;15.50;31.50;;;;;;5048888;28;20572;-61
2022/07/13 04:08:12;;;;;;;6.07;2.73;;;15.50;31.30;;;;;;5053159;28;20455;-61
2022/07/13 04:10:40;;;;;;;7.43;2.73;;;15.60;31.20;;;;;;5049942;28;20549;-62
2022/07/13 04:13:07;;;;;;;7.20;2.60;;;15.50;31.40;;;;;;5049028;28;20461;-61
2022/07/13 04:15:35;;;;;;;6.60;2.50;;;15.60;31.40;;;;;;5063359;28;20477;-62
2022/07/13 04:18:02;;;;;;;9.03;2.40;;;15.60;31.40;;;;;;5070669;28;20457;-62
2022/07/13 04:20:29;;;;;;;7.37;3.20;;;15.60;31.30;;;;;;5053714;28;20467;-62
2022/07/13 04:22:55;;;;;;;6.20;2.10;;;15.60;31.40;;;;;;5043936;28;20473;-62
2022/07/13 04:25:22;;;;;;;6.50;2.53;;;15.70;31.30;;;;;;5053387;28;21022;-62
2022/07/13 04:27:49;;;;;;;6.23;2.40;;;15.80;31.80;;;;;;5063836;28;20464;-61
2022/07/13 04:30:16;;;;;;;4.90;2.57;;;15.90;31.80;;;;;;5057024;28;20461;-62
2022/07/13 04:36:08;;;;;;;5.63;2.00;;;16.20;31.30;;;;;;5052424;28;20519;-61
2022/07/13 04:38:36;;;;;;;8.53;1.77;;;17.40;29.10;;;;;;5057936;28;20469;-62
2022/07/13 04:41:03;;;;;;;7.10;2.50;;;18.60;25.90;;;;;;5043095;28;20463;-62
2022/07/13 04:43:29;;;;;;;9.80;2.33;;;19.70;23.10;;;;;;5042280;28;20492;-61
2022/07/13 04:45:57;;;;;;;4.90;2.30;;;20.70;20.60;;;;;;5052576;28;20489;-62
2022/07/13 04:48:24;;;;;;;7.03;2.23;;;21.60;18.10;;;;;;5053204;28;21008;-62
2022/07/13 04:50:51;;;;;;;5.30;2.00;;;22.30;16.20;;;;;;5060792;28;20959;-63
2022/07/13 04:53:19;;;;;;;10.43;3.13;;;22.40;15.40;;;;;;5044229;28;20462;-62
2022/07/13 04:55:46;;;;;;;7.27;2.10;;;21.80;16.00;;;;;;5054609;28;20486;-62
2022/07/13 04:58:12;;;;;;;5.60;2.30;;;21.10;17.50;;;;;;5061345;28;20461;-62
2022/07/13 05:00:39;;;;;;;9.37;2.30;;;21.20;19.20;;;;;;5073229;28;20989;-62
2022/07/13 05:03:06;;;;;;;5.27;2.20;;;22.50;17.60;;;;;;5073294;28;20457;-61
2022/07/13 05:05:33;;;;;;;5.87;2.80;;;23.80;15.10;;;;;;5066580;28;20481;-63
2022/07/13 05:08:00;;;;;;;5.50;2.63;;;25.10;13.30;;;;;;5068926;28;20530;-62
2022/07/13 05:10:29;;;;;;;4.70;1.93;;;26.20;10.80;;;;;;5070201;28;20669;-63
2022/07/13 05:12:56;;;;;;;6.03;2.30;;;27.00;9.00;;;;;;5052777;28;20499;-62
2022/07/13 05:15:23;;;;;;;5.13;2.53;;;27.90;7.00;;;;;;5041656;28;20857;-62
2022/07/13 05:17:51;;;;;;;4.47;2.30;;;28.60;6.00;;;;;;5053332;28;20876;-62
2022/07/13 05:20:18;;;;;;;6.20;2.20;;;29.20;5.10;;;;;;5049860;28;20755;-64
2022/07/13 05:22:44;;;;;;;6.33;2.17;;;29.80;3.80;;;;;;5052573;28;20449;-68
2022/07/13 05:25:11;;;;;;;5.27;2.13;;;30.40;2.70;;;;;;5053692;28;21079;-71
2022/07/13 05:27:40;;;;;;;5.40;2.63;;;31.10;1.80;;;;;;5046107;28;20466;-71
2022/07/13 05:30:07;;;;;;;4.43;2.50;;;31.70;1.00;;;;;;5050068;28;20464;-71
2022/07/13 05:32:34;;;;;;;6.80;2.30;;;32.40;1.00;;;;;;5058007;28;20470;-71
2022/07/13 05:35:01;;;;;;;4.53;1.97;;;32.90;1.00;;;;;;5060394;28;20485;-71
2022/07/13 05:37:28;;;;;;;6.10;2.27;;;33.50;1.00;;;;;;5067437;28;20495;-71
2022/07/13 05:39:55;;;;;;;5.33;1.80;;;34.10;1.00;;;;;;5059306;28;20845;-71
2022/07/13 05:42:22;;;;;;;4.97;2.03;;;34.80;1.00;;;;;;5066372;28;20467;-71
2022/07/13 05:44:50;;;;;;;5.83;1.97;;;35.50;1.00;;;;;;5067963;28;21036;-71
2022/07/13 05:47:17;;;;;;;4.77;1.90;;;36.00;1.00;;;;;;5069424;28;20467;-71
2022/07/13 05:49:44;;;;;;;5.20;1.80;;;36.50;1.00;;;;;;5057591;28;20466;-71
2022/07/13 05:52:10;;;;;;;3.90;2.20;;;37.00;1.00;;;;;;5058161;28;20467;-71
2022/07/13 05:54:37;;;;;;;4.90;2.13;;;37.40;1.00;;;;;;5054430;28;20478;-71
2022/07/13 05:57:04;;;;;;;3.90;1.90;;;37.90;1.00;;;;;;5054296;28;20480;-71
2022/07/13 05:59:33;;;;;;;4.70;1.53;;;38.40;1.00;;;;;;5050138;28;20462;-71
2022/07/13 06:02:01;;;;;;;5.70;1.67;;;39.10;1.00;;;;;;5064828;28;20469;-71
2022/07/13 06:04:28;;;;;;;7.40;1.83;;;39.60;1.00;;;;;;5049321;28;20485;-71
2022/07/13 06:06:54;;;;;;;6.80;1.83;;;40.10;1.00;;;;;;5048796;28;20468;-71
2022/07/13 06:09:22;;;;;;;3.83;1.60;;;40.40;1.00;;;;;;5048221;28;20478;-71
2022/07/13 06:11:48;;;;;;;3.57;1.23;;;40.70;1.00;;;;;;5048890;28;20462;-72
2022/07/13 06:14:15;;;;;;;4.40;1.67;;;41.30;1.00;;;;;;5048242;28;22172;-71
2022/07/13 06:16:42;;;;;;;5.67;1.67;;;42.10;1.00;;;;;;5066924;28;20481;-71
2022/07/13 06:19:10;;;;;;;4.23;2.00;;;42.90;1.00;;;;;;5046694;28;20461;-71
2022/07/13 06:21:37;;;;;;;3.80;1.90;;;43.40;1.00;;;;;;5049340;28;20844;-71
2022/07/13 06:24:04;;;;;;;4.43;1.87;;;43.10;1.00;;;;;;5048708;28;20969;-71
2022/07/13 06:26:31;;;;;;;4.70;1.70;;;43.00;1.00;;;;;;5048612;28;20462;-71
2022/07/13 06:28:58;;;;;;;4.10;2.00;;;42.20;1.00;;;;;;5046346;28;20897;-71
2022/07/13 06:31:25;;;;;;;4.70;1.60;;;40.90;1.00;;;;;;5048174;28;20470;-71
2022/07/13 06:33:52;;;;;;;4.00;2.00;;;40.40;1.00;;;;;;5058771;28;20473;-71
2022/07/13 06:36:20;;;;;;;5.67;2.23;;;41.30;1.00;;;;;;5067761;28;20485;-72
2022/07/13 06:38:48;;;;;;;3.80;2.00;;;42.50;1.00;;;;;;5053290;28;21104;-71
2022/07/13 06:41:15;;;;;;;4.53;1.80;;;43.70;1.00;;;;;;5046076;28;20552;-71
2022/07/13 06:43:41;;;;;;;5.93;1.90;;;44.60;1.00;;;;;;5054992;28;20453;-72
2022/07/13 06:46:09;;;;;;;3.40;1.70;;;45.30;1.00;;;;;;5067806;28;20477;-72
2022/07/13 06:48:36;;;;;;;5.50;1.80;;;46.20;1.00;;;;;;5059645;28;20492;-72
2022/07/13 06:51:03;;;;;;;4.83;1.83;;;46.80;1.00;;;;;;5055653;28;20457;-72
2022/07/13 06:53:31;;;;;;;6.60;1.80;;;46.40;1.00;;;;;;5045960;28;20462;-72
2022/07/13 06:55:58;;;;;;;4.17;1.83;;;46.00;1.00;;;;;;5047788;28;20507;-72
2022/07/13 06:58:24;;;;;;;4.50;1.60;;;45.50;1.00;;;;;;5047527;28;20469;-72
2022/07/13 07:00:51;;;;;;;4.53;1.70;;;45.20;1.00;;;;;;5047850;28;20470;-71
2022/07/13 07:03:19;;;;;;;3.10;1.40;;;46.00;1.00;;;;;;5045250;28;20470;-72
2022/07/13 07:05:46;;;;;;;3.00;1.27;;;46.80;1.00;;;;;;5036091;28;20541;-71
2022/07/13 07:08:13;;;;;;;3.97;1.50;;;46.70;1.00;;;;;;5049863;28;20458;-72
2022/07/13 07:10:41;;;;;;;5.23;1.40;;;46.80;1.00;;;;;;5048852;28;21004;-71
2022/07/13 07:13:08;;;;;;;4.10;1.30;;;47.90;1.00;;;;;;5047675;28;20468;-71
2022/07/13 07:15:35;;;;;;;3.80;1.10;;;48.60;1.00;;;;;;5047608;28;20644;-71
2022/07/13 07:18:01;;;;;;;3.70;1.30;;;49.10;1.00;;;;;;5047084;28;20478;-72
2022/07/13 07:20:28;;;;;;;4.40;1.03;;;49.50;1.00;;;;;;5048116;28;20467;-72
2022/07/13 07:22:55;;;;;;;4.10;1.40;;;50.10;1.00;;;;;;5053540;28;20457;-72
2022/07/13 07:25:22;;;;;;;4.73;1.37;;;50.50;1.00;;;;;;5067164;28;20485;-72
2022/07/13 07:27:51;;;;;;;4.63;1.30;;;51.40;1.00;;;;;;5060552;28;20465;-72
2022/07/13 07:30:18;;;;;;;3.40;1.17;;;51.30;1.00;;;;;;5047785;28;20466;-72
2022/07/13 07:32:44;;;;;;;6.37;1.83;;;51.90;1.00;;;;;;5053172;28;20458;-72
2022/07/13 07:35:11;;;;;;;4.03;1.40;;;53.10;1.00;;;;;;5053083;28;20476;-72
2022/07/13 07:37:39;;;;;;;5.03;1.23;;;53.20;1.00;;;;;;5065853;28;20489;-72
2022/07/13 07:40:07;;;;;;;4.67;1.43;;;53.00;1.00;;;;;;5030128;28;20981;-72
2022/07/13 07:42:34;;;;;;;3.77;1.60;;;53.20;1.00;;;;;;5040268;28;20466;-72
2022/07/13 07:45:03;;;;;;;5.27;1.40;;;53.80;1.00;;;;;;5046604;28;20691;-71
2022/07/13 07:47:30;;;;;;;5.70;1.10;;;54.10;1.00;;;;;;5050180;28;20822;-71
2022/07/13 07:49:57;;;;;;;3.47;1.40;;;54.10;1.00;;;;;;5052007;28;20945;-71
2022/07/13 07:52:24;;;;;;;4.40;1.00;;;54.20;1.00;;;;;;5046862;28;20484;-71
2022/07/13 07:54:51;;;;;;;4.10;1.57;;;54.60;1.00;;;;;;5045947;28;20493;-71
2022/07/13 07:57:17;;;;;;;3.43;1.00;;;55.40;1.00;;;;;;5033927;28;20484;-71
2022/07/13 07:59:44;;;;;;;7.87;1.03;;;55.50;1.00;;;;;;5047866;28;20465;-71
2022/07/13 08:02:12;;;;;;;4.60;1.00;;;55.30;1.00;;;;;;5046223;28;20466;-71
2022/07/13 08:04:39;;;;;;;6.33;1.20;;;55.50;1.00;;;;;;5047403;28;20681;-71
2022/07/13 08:07:07;;;;;;;4.50;1.07;;;55.50;1.00;;;;;;5045202;28;20464;-71
2022/07/13 08:09:35;;;;;;;2.80;0.77;;;55.90;1.00;;;;;;5047485;28;20545;-71
2022/07/13 08:12:02;;;;;;;4.63;1.30;;;55.60;1.00;;;;;;5047751;28;20458;-71
2022/07/13 08:14:29;;;;;;;2.50;0.60;;;54.30;1.00;;;;;;5059853;28;20488;-71
2022/07/13 08:16:56;;;;;;;2.43;0.70;;;53.30;1.00;;;;;;5044545;28;21071;-72
2022/07/13 08:19:24;;;;;;;3.47;0.80;;;53.60;1.00;;;;;;5063453;28;20493;-72
2022/07/13 08:21:51;;;;;;;2.57;0.83;;;54.60;1.00;;;;;;5058249;28;20464;-72
2022/07/13 08:24:18;;;;;;;4.20;1.13;;;55.20;1.00;;;;;;5047644;28;20481;-72
2022/07/13 08:26:45;;;;;;;3.57;1.00;;;55.80;1.00;;;;;;5033786;28;20465;-72
2022/07/13 08:29:13;;;;;;;7.10;1.30;;;56.10;1.00;;;;;;5053120;28;20458;-72
2022/07/13 08:31:40;;;;;;;3.70;1.20;;;56.30;1.00;;;;;;5058667;28;20479;-72
2022/07/13 08:39:37;;;;;;;6.00;1.30;;;55.50;1.00;;;;;;5046965;28;20488;-71
2022/07/13 08:42:04;;;;;;;3.90;1.20;;;55.90;1.00;;;;;;5059907;28;20957;-71
2022/07/13 08:44:31;;;;;;;3.60;1.07;;;56.00;1.00;;;;;;5047820;28;20488;-72
2022/07/13 08:47:00;;;;;;;6.27;1.00;;;56.00;1.00;;;;;;5054084;28;20453;-71
2022/07/13 08:49:28;;;;;;;3.53;1.00;;;56.10;1.00;;;;;;5046611;28;20457;-71
2022/07/13 08:51:58;;;;;;;2.97;0.83;;;56.10;1.00;;;;;;5048967;28;20464;-72
2022/07/13 08:54:25;;;;;;;4.23;1.00;;;56.20;1.00;;;;;;5049245;28;20488;-71
2022/07/13 08:56:52;;;;;;;4.40;0.80;;;56.70;1.00;;;;;;5048901;28;20636;-71
2022/07/13 08:59:18;;;;;;;3.50;0.77;;;56.90;1.00;;;;;;5047670;28;20461;-71
2022/07/13 09:01:45;;;;;;;2.83;0.77;;;57.70;1.00;;;;;;5048766;28;20466;-71
2022/07/13 09:04:12;;;;;;;4.40;0.90;;;58.00;1.00;;;;;;5048980;28;20585;-71
2022/07/13 09:06:48;;;;;;;3.37;0.90;;;58.10;1.00;;;;;;5047996;28;20735;-71
2022/07/13 09:09:32;;;;;;;6.37;1.10;;;58.80;1.00;;;;;;5047948;28;20206;-71
2022/07/13 09:12:17;;;;;;;4.07;1.00;;;58.60;1.00;;;;;;5048614;28;20199;-72
2022/07/13 09:14:50;;;;;;;2.95;0.60;;;58.50;1.00;;;;;;5048600;28;20636;-72
2022/07/13 09:17:34;;;;;;;3.90;0.90;;;58.60;1.00;;;;;;5048081;28;20234;-71
2022/07/13 09:20:15;;;;;;;3.33;0.80;;;57.80;1.00;;;;;;5048814;28;20285;-71
2022/07/13 09:22:47;;;;;;;3.47;0.60;;;56.20;1.00;;;;;;5048633;28;20888;-71
2022/07/13 09:25:28;;;;;;;2.67;0.77;;;55.40;1.00;;;;;;5045054;28;20481;-71
2022/07/13 09:27:55;;;;;;;2.60;0.70;;;55.50;1.00;;;;;;5049317;28;20454;-71
2022/07/13 09:30:23;;;;;;;3.60;0.67;;;55.60;1.00;;;;;;5048193;28;20461;-71
2022/07/13 09:32:51;;;;;;;3.10;0.70;;;55.90;1.00;;;;;;5048939;28;20461;-70
2022/07/13 09:35:18;;;;;;;2.50;0.70;;;55.60;1.00;;;;;;5046468;28;20486;-70
2022/07/13 09:37:44;;;;;;;4.77;0.60;;;54.40;1.00;;;;;;5048481;28;21018;-71
2022/07/13 09:40:17;;;;;;;2.97;0.70;;;52.50;1.00;;;;;;5048188;28;20990;-71
2022/07/13 09:46:08;;;;;;;3.83;0.77;;;50.50;1.00;;;;;;5049556;28;20462;-71
2022/07/13 09:48:23;;;;;;;4.60;0.70;;;45.80;1.00;;;;;;5048967;28;20973;-71
2022/07/13 09:50:53;;;;;;;2.80;0.80;;;44.20;1.00;;;;;;5046398;28;20473;-71
2022/07/13 09:53:27;;;;;;;2.80;0.80;;;43.10;1.00;;;;;;5048127;28;20469;-71
2022/07/13 09:55:55;;;;;;;3.10;0.60;;;42.00;1.00;;;;;;5045071;28;20478;-71
2022/07/13 09:58:28;;;;;;;2.80;0.70;;;41.10;1.00;;;;;;5047787;28;20493;-71
2022/07/13 10:00:56;;;;;;;2.70;0.70;;;40.60;1.00;;;;;;5046076;28;20484;-71
2022/07/13 10:03:23;;;;;;;3.10;0.60;;;40.20;1.00;;;;;;5047800;28;20489;-71
2022/07/13 10:05:51;;;;;;;2.67;0.53;;;39.80;1.00;;;;;;5047552;28;20486;-70
2022/07/13 10:08:18;;;;;;;3.13;0.63;;;39.30;1.00;;;;;;5045651;28;20469;-70
2022/07/13 10:10:46;;;;;;;3.43;0.80;;;39.20;1.00;;;;;;5047710;28;20461;-70
2022/07/13 10:13:13;;;;;;;2.83;0.60;;;39.10;1.00;;;;;;5051055;28;20984;-70
2022/07/13 10:15:42;;;;;;;3.07;0.60;;;38.80;1.00;;;;;;5068290;28;20481;-70
2022/07/13 10:18:11;;;;;;;3.07;0.77;;;38.30;1.00;;;;;;5050050;28;20494;-70
2022/07/13 10:20:42;;;;;;;3.20;0.90;;;37.70;1.00;;;;;;5049182;28;20465;-70
2022/07/13 10:23:10;;;;;;;3.10;0.57;;;37.10;1.00;;;;;;5049001;28;20461;-70
2022/07/13 10:25:44;;;;;;;3.63;0.70;;;36.30;1.00;;;;;;5048780;28;20486;-70
2022/07/13 10:28:12;;;;;;;4.20;1.00;;;35.80;1.00;;;;;;5046519;28;20560;-71
2022/07/13 10:30:41;;;;;;;3.30;0.80;;;35.50;1.00;;;;;;5061267;28;20484;-70
2022/07/13 10:33:18;;;;;;;3.83;1.10;;;35.00;1.00;;;;;;5049337;28;20458;-71
2022/07/13 10:35:49;;;;;;;3.37;0.90;;;34.90;1.00;;;;;;5050238;28;20473;-70
2022/07/13 10:38:17;;;;;;;3.30;0.70;;;34.90;1.00;;;;;;5059056;28;20573;-70
2022/07/13 10:40:44;;;;;;;6.40;0.80;;;34.50;1.00;;;;;;5048641;28;20733;-70
2022/07/13 10:43:15;;;;;;;3.40;0.87;;;34.10;1.00;;;;;;5058683;28;20461;-70
2022/07/13 10:45:51;;;;;;;3.20;0.77;;;33.90;1.00;;;;;;5062487;28;20861;-71
2022/07/13 10:48:47;;;;;;;3.83;0.90;;;33.90;1.00;;;;;;5065554;28;20598;-71
2022/07/13 10:51:22;;;;;;;3.77;0.80;;;33.90;1.00;;;;;;5037721;28;20962;-71
2022/07/13 10:54:09;;;;;;;3.30;0.80;;;34.00;1.00;;;;;;5048110;28;20453;-71
2022/07/13 10:56:36;;;;;;;3.80;1.30;;;34.00;1.00;;;;;;5054046;28;20446;-71
2022/07/13 10:59:03;;;;;;;3.17;0.73;;;34.00;1.00;;;;;;5051173;28;20563;-70
2022/07/13 11:01:39;;;;;;;3.33;0.90;;;33.80;1.00;;;;;;5047559;28;20474;-71
2022/07/13 11:04:07;;;;;;;3.30;1.17;;;33.70;1.00;;;;;;5057128;28;20557;-70
2022/07/13 11:06:34;;;;;;;6.00;0.83;;;33.50;1.00;;;;;;5047729;28;20996;-70
2022/07/13 11:09:18;;;;;;;5.00;1.37;;;33.20;1.00;;;;;;5047582;28;20632;-70
2022/07/13 11:11:50;;;;;;;3.40;0.90;;;32.80;1.00;;;;;;5050172;28;21003;-70
2022/07/13 11:14:48;;;;;;;3.03;0.80;;;32.60;1.00;;;;;;5068132;28;20941;-70
2022/07/13 11:17:20;;;;;;;4.70;0.77;;;32.40;1.00;;;;;;5062266;28;20473;-70
2022/07/13 11:19:58;;;;;;;6.40;0.97;;;32.20;1.00;;;;;;5047878;28;20469;-70
2022/07/13 11:22:26;;;;;;;2.90;0.80;;;32.00;1.00;;;;;;5048602;28;20466;-70
2022/07/13 11:25:14;;;;;;;3.10;0.80;;;31.90;1.00;;;;;;5059234;28;20491;-70
2022/07/13 11:27:54;;;;;;;3.00;0.80;;;31.80;1.00;;;;;;5062389;28;20450;-70
2022/07/13 11:30:28;;;;;;;2.97;0.77;;;31.70;1.00;;;;;;5047123;28;20456;-70
2022/07/13 11:32:58;;;;;;;2.90;0.60;;;31.60;1.00;;;;;;5047855;28;20660;-70
2022/07/13 11:35:25;;;;;;;6.50;0.77;;;31.60;1.00;;;;;;5048145;28;20904;-70
2022/07/13 11:37:53;;;;;;;4.50;0.80;;;31.60;1.00;;;;;;5046503;28;20547;-70
2022/07/13 11:40:31;;;;;;;3.50;0.80;;;31.60;1.00;;;;;;5047726;28;20462;-70
2022/07/13 11:43:00;;;;;;;3.97;0.90;;;31.60;1.00;;;;;;5047013;28;20681;-70
2022/07/13 11:45:30;;;;;;;3.80;0.87;;;31.50;1.00;;;;;;5065290;28;20477;-70
2022/07/13 11:47:59;;;;;;;3.20;0.80;;;31.40;1.00;;;;;;5064807;28;20465;-70
2022/07/13 11:50:47;;;;;;;2.90;0.60;;;31.40;1.00;;;;;;5049726;28;20453;-70
2022/07/13 11:53:26;;;;;;;3.80;1.00;;;31.30;1.00;;;;;;5062695;28;20819;-70
2022/07/13 11:55:54;;;;;;;2.87;0.60;;;31.20;1.00;;;;;;5050936;28;20885;-71
2022/07/13 11:58:27;;;;;;;3.10;0.80;;;31.20;1.00;;;;;;5041810;28;20477;-71
2022/07/13 12:00:54;;;;;;;3.30;0.60;;;31.10;1.00;;;;;;5046312;28;20466;-71
2022/07/13 12:03:33;;;;;;;3.73;0.67;;;30.90;1.00;;;;;;5046792;28;20474;-71
2022/07/13 12:06:02;;;;;;;3.23;0.63;;;30.90;1.00;;;;;;5046152;28;20837;-71
2022/07/13 12:08:33;;;;;;;4.20;0.77;;;30.80;1.00;;;;;;5047645;28;20469;-71
2022/07/13 12:11:00;;;;;;;3.47;0.70;;;30.70;1.00;;;;;;5044934;28;20462;-71
2022/07/13 12:13:27;;;;;;;4.20;0.90;;;30.70;1.00;;;;;;5067355;28;20844;-71
2022/07/13 12:15:53;;;;;;;3.20;0.73;;;30.60;1.00;;;;;;5052289;28;20493;-71
2022/07/13 12:18:20;;;;;;;3.50;0.90;;;30.60;1.00;;;;;;5067509;28;20491;-71
2022/07/13 12:20:48;;;;;;;2.90;0.70;;;30.50;1.00;;;;;;5062830;28;20761;-71
2022/07/13 12:23:17;;;;;;;4.17;1.00;;;30.50;1.00;;;;;;5051642;28;20472;-71
2022/07/13 12:25:47;;;;;;;3.13;0.80;;;30.50;1.00;;;;;;5050963;28;20835;-71
2022/07/13 12:28:13;;;;;;;5.73;0.93;;;30.50;1.00;;;;;;5051128;28;20515;-71
2022/07/13 12:30:56;;;;;;;3.47;1.00;;;30.50;1.00;;;;;;5053166;28;20477;-71
2022/07/13 12:33:24;;;;;;;4.53;1.00;;;30.50;1.00;;;;;;5039556;28;20466;-71
2022/07/13 12:36:03;;;;;;;2.80;0.60;;;30.40;1.00;;;;;;5048148;28;20492;-71
2022/07/13 12:38:31;;;;;;;3.33;0.90;;;30.40;1.00;;;;;;5044685;28;20493;-71
2022/07/13 12:41:00;;;;;;;3.10;0.90;;;30.40;1.00;;;;;;5046855;28;20466;-71
2022/07/13 12:43:29;;;;;;;3.40;0.90;;;30.40;1.00;;;;;;5046301;28;20458;-71
2022/07/13 12:45:57;;;;;;;3.27;0.83;;;30.30;1.00;;;;;;5050224;28;20535;-71
2022/07/13 12:48:26;;;;;;;3.67;1.00;;;30.30;1.00;;;;;;5049913;28;20462;-71
2022/07/13 12:51:00;;;;;;;3.20;0.80;;;30.20;1.00;;;;;;5050399;28;20523;-70
2022/07/13 12:53:27;;;;;;;3.40;1.00;;;30.20;1.00;;;;;;5049336;28;20454;-70
2022/07/13 12:55:55;;;;;;;2.80;0.60;;;30.30;1.00;;;;;;5044446;28;20474;-70
2022/07/13 12:58:40;;;;;;;3.40;0.80;;;30.20;1.00;;;;;;5059001;28;21038;-70
2022/07/13 13:01:07;;;;;;;3.20;0.73;;;30.30;1.00;;;;;;5055456;28;20492;-70
2022/07/13 13:03:33;;;;;;;3.40;0.93;;;30.30;1.00;;;;;;5049172;28;20466;-70
2022/07/13 13:06:01;;;;;;;3.50;0.77;;;30.40;1.00;;;;;;5050234;28;20508;-70
2022/07/13 13:08:28;;;;;;;6.43;1.53;;;30.40;1.00;;;;;;5050597;28;20693;-70